sensor_id;sensor_type;location;lat;lon;timestamp;temperature;humidity
35043;DHT22;21230;51.170;17.024;2023-01-29T00:01:07;-1.40;99.90
35043;DHT22;21230;51.170;17.024;2023-01-29T00:03:33;-1.40;99.90
35043;DHT22;21230;51.170;17.024;2023-01-29T00:06:03;-1.40;99.90
35043;DHT22;21230;51.170;17.024;2023-01-29T00:08:36;-1.40;99.90
35043;DHT22;21230;51.170;17.024;2023-01-29T00:11:03;-1.40;99.90
35043;DHT22;21230;51.170;17.024;2023-01-29T00:13:30;-1.40;99.90
35043;DHT22;21230;51.170;17.024;2023-01-29T00:15:57;-1.50;99.90
35043;DHT22;21230;51.170;17.024;2023-01-29T00:18:24;-1.50;99.90
35043;DHT22;21230;51.170;17.024;2023-01-29T00:20:52;-1.50;99.90
35043;DHT22;21230;51.170;17.024;2023-01-29T00:23:19;-1.40;99.90
35043;DHT22;21230;51.170;17.024;2023-01-29T00:25:45;-1.40;99.90
35043;DHT22;21230;51.170;17.024;2023-01-29T00:28:13;-1.50;99.90
35043;DHT22;21230;51.170;17.024;2023-01-29T00:30:39;-1.50;99.90
35043;DHT22;21230;51.170;17.024;2023-01-29T00:33:05;-1.50;99.90
35043;DHT22;21230;51.170;17.024;2023-01-29T00:35:31;-1.50;99.90
35043;DHT22;21230;51.170;17.024;2023-01-29T00:38:00;-1.60;99.90
35043;DHT22;21230;51.170;17.024;2023-01-29T00:40:26;-1.60;99.90
35043;DHT22;21230;51.170;17.024;2023-01-29T00:42:52;-1.60;99.90
35043;DHT22;21230;51.170;17.024;2023-01-29T00:45:37;-1.50;99.90
35043;DHT22;21230;51.170;17.024;2023-01-29T00:48:04;-1.50;99.90
35043;DHT22;21230;51.170;17.024;2023-01-29T00:50:30;-1.50;99.90
35043;DHT22;21230;51.170;17.024;2023-01-29T00:52:56;-1.50;99.90
35043;DHT22;21230;51.170;17.024;2023-01-29T00:55:24;-1.40;99.90
35043;DHT22;21230;51.170;17.024;2023-01-29T00:57:50;-1.40;99.90
35043;DHT22;21230;51.170;17.024;2023-01-29T01:00:18;-1.40;99.90
35043;DHT22;21230;51.170;17.024;2023-01-29T01:02:47;-1.40;99.90
35043;DHT22;21230;51.170;17.024;2023-01-29T01:05:31;-1.40;99.90
35043;DHT22;21230;51.170;17.024;2023-01-29T01:07:58;-1.50;99.90
35043;DHT22;21230;51.170;17.024;2023-01-29T01:10:29;-1.50;99.90
35043;DHT22;21230;51.170;17.024;2023-01-29T01:13:02;-1.60;99.90
35043;DHT22;21230;51.170;17.024;2023-01-29T01:15:30;-1.60;99.90
35043;DHT22;21230;51.170;17.024;2023-01-29T01:18:04;-1.50;99.90
35043;DHT22;21230;51.170;17.024;2023-01-29T01:20:31;-1.50;99.90
35043;DHT22;21230;51.170;17.024;2023-01-29T01:22:57;-1.50;99.90
35043;DHT22;21230;51.170;17.024;2023-01-29T01:25:24;-1.40;99.90
35043;DHT22;21230;51.170;17.024;2023-01-29T01:27:56;-1.40;99.90
35043;DHT22;21230;51.170;17.024;2023-01-29T01:30:23;-1.40;99.90
35043;DHT22;21230;51.170;17.024;2023-01-29T01:32:49;-1.30;99.90
35043;DHT22;21230;51.170;17.024;2023-01-29T01:35:17;-1.40;99.90
35043;DHT22;21230;51.170;17.024;2023-01-29T01:37:44;-1.40;99.90
35043;DHT22;21230;51.170;17.024;2023-01-29T01:40:15;-1.30;99.90
35043;DHT22;21230;51.170;17.024;2023-01-29T01:42:43;-1.30;99.90
35043;DHT22;21230;51.170;17.024;2023-01-29T01:50:35;-1.30;99.90
35043;DHT22;21230;51.170;17.024;2023-01-29T01:53:10;-1.20;99.90
35043;DHT22;21230;51.170;17.024;2023-01-29T01:55:42;-1.20;99.90
35043;DHT22;21230;51.170;17.024;2023-01-29T01:58:12;-1.20;99.90
35043;DHT22;21230;51.170;17.024;2023-01-29T02:00:43;-1.30;99.90
35043;DHT22;21230;51.170;17.024;2023-01-29T02:03:09;-1.20;99.90
35043;DHT22;21230;51.170;17.024;2023-01-29T02:05:58;-1.20;99.90
35043;DHT22;21230;51.170;17.024;2023-01-29T02:09:01;-1.30;99.90
35043;DHT22;21230;51.170;17.024;2023-01-29T02:11:48;-1.30;99.90
35043;DHT22;21230;51.170;17.024;2023-01-29T02:14:15;-1.30;99.90
35043;DHT22;21230;51.170;17.024;2023-01-29T02:16:41;-1.30;99.90
35043;DHT22;21230;51.170;17.024;2023-01-29T02:28:38;-1.30;99.90
35043;DHT22;21230;51.170;17.024;2023-01-29T02:37:39;-1.20;99.90
35043;DHT22;21230;51.170;17.024;2023-01-29T02:43:45;-1.30;99.90
35043;DHT22;21230;51.170;17.024;2023-01-29T02:46:15;-1.20;99.90
35043;DHT22;21230;51.170;17.024;2023-01-29T02:49:08;-1.10;99.90
35043;DHT22;21230;51.170;17.024;2023-01-29T02:57:24;-1.20;99.90
35043;DHT22;21230;51.170;17.024;2023-01-29T03:02:32;-1.20;99.90
35043;DHT22;21230;51.170;17.024;2023-01-29T03:05:04;-1.20;99.90
35043;DHT22;21230;51.170;17.024;2023-01-29T03:07:38;-1.20;99.90
35043;DHT22;21230;51.170;17.024;2023-01-29T03:10:38;-1.20;99.90
35043;DHT22;21230;51.170;17.024;2023-01-29T03:13:15;-1.20;99.90
35043;DHT22;21230;51.170;17.024;2023-01-29T03:15:48;-1.20;99.90
35043;DHT22;21230;51.170;17.024;2023-01-29T03:18:32;-1.20;99.90
35043;DHT22;21230;51.170;17.024;2023-01-29T03:21:07;-1.20;99.90
35043;DHT22;21230;51.170;17.024;2023-01-29T03:23:56;-1.20;99.90
35043;DHT22;21230;51.170;17.024;2023-01-29T03:26:45;-1.20;99.90
35043;DHT22;21230;51.170;17.024;2023-01-29T03:29:35;-1.20;99.90
35043;DHT22;21230;51.170;17.024;2023-01-29T03:32:21;-1.20;99.90
35043;DHT22;21230;51.170;17.024;2023-01-29T03:35:00;-1.10;99.90
35043;DHT22;21230;51.170;17.024;2023-01-29T03:37:36;-1.10;99.90
35043;DHT22;21230;51.170;17.024;2023-01-29T03:40:09;-1.10;99.90
35043;DHT22;21230;51.170;17.024;2023-01-29T03:43:13;-1.20;99.90
35043;DHT22;21230;51.170;17.024;2023-01-29T03:49:18;-1.10;99.90
35043;DHT22;21230;51.170;17.024;2023-01-29T03:52:19;-1.20;99.90
35043;DHT22;21230;51.170;17.024;2023-01-29T04:00:51;-1.00;99.90
35043;DHT22;21230;51.170;17.024;2023-01-29T04:03:37;-1.10;99.90
35043;DHT22;21230;51.170;17.024;2023-01-29T04:06:15;-1.10;99.90
35043;DHT22;21230;51.170;17.024;2023-01-29T04:11:20;-1.10;99.90
35043;DHT22;21230;51.170;17.024;2023-01-29T04:13:49;-1.10;99.90
35043;DHT22;21230;51.170;17.024;2023-01-29T04:16:23;-1.10;99.90
35043;DHT22;21230;51.170;17.024;2023-01-29T04:18:50;-1.10;99.90
35043;DHT22;21230;51.170;17.024;2023-01-29T04:21:18;-1.10;99.90
35043;DHT22;21230;51.170;17.024;2023-01-29T04:23:44;-1.10;99.90
35043;DHT22;21230;51.170;17.024;2023-01-29T04:27:04;-1.10;99.90
35043;DHT22;21230;51.170;17.024;2023-01-29T04:35:57;-1.20;99.90
35043;DHT22;21230;51.170;17.024;2023-01-29T04:38:41;-1.20;99.90
35043;DHT22;21230;51.170;17.024;2023-01-29T04:44:07;-1.10;99.90
35043;DHT22;21230;51.170;17.024;2023-01-29T04:47:06;-1.10;99.90
35043;DHT22;21230;51.170;17.024;2023-01-29T04:52:40;-1.20;99.90
35043;DHT22;21230;51.170;17.024;2023-01-29T04:55:12;-1.10;99.90
35043;DHT22;21230;51.170;17.024;2023-01-29T04:58:04;-1.20;99.90
35043;DHT22;21230;51.170;17.024;2023-01-29T05:00:41;-1.20;99.90
35043;DHT22;21230;51.170;17.024;2023-01-29T05:03:12;-1.20;99.90
35043;DHT22;21230;51.170;17.024;2023-01-29T05:05:44;-1.20;99.90
35043;DHT22;21230;51.170;17.024;2023-01-29T05:08:13;-1.20;99.90
35043;DHT22;21230;51.170;17.024;2023-01-29T05:10:42;-1.30;99.90
35043;DHT22;21230;51.170;17.024;2023-01-29T05:13:14;-1.30;99.90
35043;DHT22;21230;51.170;17.024;2023-01-29T05:15:53;-1.30;99.90
35043;DHT22;21230;51.170;17.024;2023-01-29T05:18:21;-1.30;99.90
35043;DHT22;21230;51.170;17.024;2023-01-29T05:20:48;-1.30;99.90
35043;DHT22;21230;51.170;17.024;2023-01-29T05:23:20;-1.30;99.90
35043;DHT22;21230;51.170;17.024;2023-01-29T05:25:49;-1.30;99.90
35043;DHT22;21230;51.170;17.024;2023-01-29T05:28:16;-1.30;99.90
35043;DHT22;21230;51.170;17.024;2023-01-29T05:30:47;-1.30;99.90
35043;DHT22;21230;51.170;17.024;2023-01-29T05:33:28;-1.20;99.90
35043;DHT22;21230;51.170;17.024;2023-01-29T05:35:58;-1.20;99.90
35043;DHT22;21230;51.170;17.024;2023-01-29T05:38:25;-1.20;99.90
35043;DHT22;21230;51.170;17.024;2023-01-29T05:40:53;-1.20;99.90
35043;DHT22;21230;51.170;17.024;2023-01-29T05:43:23;-1.10;99.90
35043;DHT22;21230;51.170;17.024;2023-01-29T05:46:00;-1.20;99.90
35043;DHT22;21230;51.170;17.024;2023-01-29T05:48:30;-1.10;99.90
35043;DHT22;21230;51.170;17.024;2023-01-29T05:51:02;-1.10;99.90
35043;DHT22;21230;51.170;17.024;2023-01-29T05:53:29;-1.20;99.90
35043;DHT22;21230;51.170;17.024;2023-01-29T05:55:55;-1.20;99.90
35043;DHT22;21230;51.170;17.024;2023-01-29T05:58:30;-1.20;99.90
35043;DHT22;21230;51.170;17.024;2023-01-29T06:00:57;-1.30;99.90
35043;DHT22;21230;51.170;17.024;2023-01-29T06:03:24;-1.20;99.90
35043;DHT22;21230;51.170;17.024;2023-01-29T06:05:50;-1.20;99.90
35043;DHT22;21230;51.170;17.024;2023-01-29T06:08:16;-1.20;99.90
35043;DHT22;21230;51.170;17.024;2023-01-29T06:10:44;-1.20;99.90
35043;DHT22;21230;51.170;17.024;2023-01-29T06:13:10;-1.20;99.90
35043;DHT22;21230;51.170;17.024;2023-01-29T06:15:39;-1.10;99.90
35043;DHT22;21230;51.170;17.024;2023-01-29T06:18:05;-1.20;99.90
35043;DHT22;21230;51.170;17.024;2023-01-29T06:20:31;-1.30;99.90
35043;DHT22;21230;51.170;17.024;2023-01-29T06:22:57;-1.20;99.90
35043;DHT22;21230;51.170;17.024;2023-01-29T06:25:23;-1.20;99.90
35043;DHT22;21230;51.170;17.024;2023-01-29T06:27:50;-1.30;99.90
35043;DHT22;21230;51.170;17.024;2023-01-29T06:30:18;-1.30;99.90
35043;DHT22;21230;51.170;17.024;2023-01-29T06:32:46;-1.30;99.90
35043;DHT22;21230;51.170;17.024;2023-01-29T06:35:13;-1.40;99.90
35043;DHT22;21230;51.170;17.024;2023-01-29T06:37:43;-1.40;99.90
35043;DHT22;21230;51.170;17.024;2023-01-29T06:40:09;-1.40;99.90
35043;DHT22;21230;51.170;17.024;2023-01-29T06:42:38;-1.40;99.90
35043;DHT22;21230;51.170;17.024;2023-01-29T06:45:05;-1.50;99.90
35043;DHT22;21230;51.170;17.024;2023-01-29T06:47:33;-1.50;99.90
35043;DHT22;21230;51.170;17.024;2023-01-29T06:50:02;-1.50;99.90
35043;DHT22;21230;51.170;17.024;2023-01-29T06:52:28;-1.50;99.90
35043;DHT22;21230;51.170;17.024;2023-01-29T06:54:57;-1.50;99.90
35043;DHT22;21230;51.170;17.024;2023-01-29T06:57:23;-1.50;99.90
35043;DHT22;21230;51.170;17.024;2023-01-29T06:59:48;-1.50;99.90
35043;DHT22;21230;51.170;17.024;2023-01-29T07:02:16;-1.50;99.90
35043;DHT22;21230;51.170;17.024;2023-01-29T07:04:43;-1.50;99.90
35043;DHT22;21230;51.170;17.024;2023-01-29T07:07:10;-1.40;99.90
35043;DHT22;21230;51.170;17.024;2023-01-29T07:09:41;-1.40;99.90
35043;DHT22;21230;51.170;17.024;2023-01-29T07:12:09;-1.50;99.90
35043;DHT22;21230;51.170;17.024;2023-01-29T07:14:35;-1.50;99.90
35043;DHT22;21230;51.170;17.024;2023-01-29T07:17:02;-1.50;99.90
35043;DHT22;21230;51.170;17.024;2023-01-29T07:19:28;-1.50;99.90
35043;DHT22;21230;51.170;17.024;2023-01-29T07:21:54;-1.40;99.90
35043;DHT22;21230;51.170;17.024;2023-01-29T07:24:21;-1.40;99.90
35043;DHT22;21230;51.170;17.024;2023-01-29T07:26:48;-1.40;99.90
35043;DHT22;21230;51.170;17.024;2023-01-29T07:29:14;-1.40;99.90
35043;DHT22;21230;51.170;17.024;2023-01-29T07:31:40;-1.30;99.90
35043;DHT22;21230;51.170;17.024;2023-01-29T07:34:10;-1.20;99.90
35043;DHT22;21230;51.170;17.024;2023-01-29T07:36:35;-1.20;99.90
35043;DHT22;21230;51.170;17.024;2023-01-29T07:39:01;-1.20;99.90
35043;DHT22;21230;51.170;17.024;2023-01-29T07:41:27;-1.20;99.90
35043;DHT22;21230;51.170;17.024;2023-01-29T07:43:53;-1.20;99.90
35043;DHT22;21230;51.170;17.024;2023-01-29T07:46:20;-1.20;99.90
35043;DHT22;21230;51.170;17.024;2023-01-29T07:48:46;-1.20;99.90
35043;DHT22;21230;51.170;17.024;2023-01-29T07:51:12;-1.30;99.90
35043;DHT22;21230;51.170;17.024;2023-01-29T07:53:38;-1.40;99.90
35043;DHT22;21230;51.170;17.024;2023-01-29T07:56:04;-1.40;99.90
35043;DHT22;21230;51.170;17.024;2023-01-29T07:58:30;-1.40;99.90
35043;DHT22;21230;51.170;17.024;2023-01-29T08:00:56;-1.30;99.90
35043;DHT22;21230;51.170;17.024;2023-01-29T08:03:22;-1.30;99.90
35043;DHT22;21230;51.170;17.024;2023-01-29T08:05:51;-1.20;99.90
35043;DHT22;21230;51.170;17.024;2023-01-29T08:08:19;-1.20;99.90
35043;DHT22;21230;51.170;17.024;2023-01-29T08:10:46;-1.10;99.90
35043;DHT22;21230;51.170;17.024;2023-01-29T08:13:16;-1.00;99.90
35043;DHT22;21230;51.170;17.024;2023-01-29T08:15:43;-1.10;99.90
35043;DHT22;21230;51.170;17.024;2023-01-29T08:18:13;-1.10;99.90
35043;DHT22;21230;51.170;17.024;2023-01-29T08:20:40;-1.00;99.90
35043;DHT22;21230;51.170;17.024;2023-01-29T08:23:09;-1.00;99.90
35043;DHT22;21230;51.170;17.024;2023-01-29T08:25:36;-1.00;99.90
35043;DHT22;21230;51.170;17.024;2023-01-29T08:28:03;-1.00;99.90
35043;DHT22;21230;51.170;17.024;2023-01-29T08:30:32;-1.00;99.90
35043;DHT22;21230;51.170;17.024;2023-01-29T08:32:59;-0.90;99.90
35043;DHT22;21230;51.170;17.024;2023-01-29T08:35:25;-0.90;99.90
35043;DHT22;21230;51.170;17.024;2023-01-29T08:37:59;-0.80;99.90
35043;DHT22;21230;51.170;17.024;2023-01-29T08:40:35;-0.80;99.90
35043;DHT22;21230;51.170;17.024;2023-01-29T08:43:03;-0.80;99.90
35043;DHT22;21230;51.170;17.024;2023-01-29T08:45:35;-0.70;99.90
35043;DHT22;21230;51.170;17.024;2023-01-29T08:48:02;-0.70;99.90
35043;DHT22;21230;51.170;17.024;2023-01-29T08:50:35;-0.60;99.90
35043;DHT22;21230;51.170;17.024;2023-01-29T08:53:03;-0.60;99.90
35043;DHT22;21230;51.170;17.024;2023-01-29T08:55:32;-0.60;99.90
35043;DHT22;21230;51.170;17.024;2023-01-29T08:58:16;-0.40;99.90
35043;DHT22;21230;51.170;17.024;2023-01-29T09:00:46;-0.40;99.90
35043;DHT22;21230;51.170;17.024;2023-01-29T09:03:13;-0.30;99.90
35043;DHT22;21230;51.170;17.024;2023-01-29T09:05:40;-0.30;99.90
35043;DHT22;21230;51.170;17.024;2023-01-29T09:08:06;-0.30;99.90
35043;DHT22;21230;51.170;17.024;2023-01-29T09:10:34;-0.20;99.90
35043;DHT22;21230;51.170;17.024;2023-01-29T09:13:00;-0.10;99.90
35043;DHT22;21230;51.170;17.024;2023-01-29T09:15:27;-0.20;99.90
35043;DHT22;21230;51.170;17.024;2023-01-29T09:17:53;-0.20;99.90
35043;DHT22;21230;51.170;17.024;2023-01-29T09:20:19;-0.20;99.90
35043;DHT22;21230;51.170;17.024;2023-01-29T09:22:51;-0.10;99.90
35043;DHT22;21230;51.170;17.024;2023-01-29T09:25:21;-0.20;99.90
35043;DHT22;21230;51.170;17.024;2023-01-29T09:27:52;-0.10;99.90
35043;DHT22;21230;51.170;17.024;2023-01-29T09:30:24;0.00;99.90
35043;DHT22;21230;51.170;17.024;2023-01-29T09:32:51;0.00;99.90
35043;DHT22;21230;51.170;17.024;2023-01-29T09:35:20;0.00;99.90
35043;DHT22;21230;51.170;17.024;2023-01-29T09:37:52;0.10;99.90
35043;DHT22;21230;51.170;17.024;2023-01-29T09:43:57;0.40;99.90
35043;DHT22;21230;51.170;17.024;2023-01-29T09:46:49;0.50;99.90
35043;DHT22;21230;51.170;17.024;2023-01-29T09:49:40;0.60;99.90
35043;DHT22;21230;51.170;17.024;2023-01-29T09:55:36;0.80;99.90
35043;DHT22;21230;51.170;17.024;2023-01-29T09:58:33;0.90;99.90
35043;DHT22;21230;51.170;17.024;2023-01-29T10:01:32;0.90;99.90
35043;DHT22;21230;51.170;17.024;2023-01-29T10:04:27;1.00;99.90
35043;DHT22;21230;51.170;17.024;2023-01-29T10:22:27;0.90;99.90
35043;DHT22;21230;51.170;17.024;2023-01-29T10:25:09;0.70;99.90
35043;DHT22;21230;51.170;17.024;2023-01-29T10:27:41;0.70;99.90
35043;DHT22;21230;51.170;17.024;2023-01-29T10:30:32;0.80;99.90
35043;DHT22;21230;51.170;17.024;2023-01-29T10:33:20;1.00;99.90
35043;DHT22;21230;51.170;17.024;2023-01-29T10:36:02;1.10;99.90
35043;DHT22;21230;51.170;17.024;2023-01-29T10:38:49;0.90;99.90
35043;DHT22;21230;51.170;17.024;2023-01-29T10:44:26;0.80;99.90
35043;DHT22;21230;51.170;17.024;2023-01-29T10:47:37;0.80;99.90
35043;DHT22;21230;51.170;17.024;2023-01-29T10:58:55;0.80;99.90
35043;DHT22;21230;51.170;17.024;2023-01-29T11:01:30;0.80;99.90
35043;DHT22;21230;51.170;17.024;2023-01-29T11:04:01;0.80;99.90
35043;DHT22;21230;51.170;17.024;2023-01-29T11:06:32;0.90;99.90
35043;DHT22;21230;51.170;17.024;2023-01-29T11:12:02;1.00;99.90
35043;DHT22;21230;51.170;17.024;2023-01-29T11:17:24;1.00;99.90
35043;DHT22;21230;51.170;17.024;2023-01-29T11:19:53;1.00;99.90
35043;DHT22;21230;51.170;17.024;2023-01-29T11:22:29;1.00;99.90
35043;DHT22;21230;51.170;17.024;2023-01-29T11:27:52;1.00;99.90
35043;DHT22;21230;51.170;17.024;2023-01-29T11:30:34;1.00;99.90
35043;DHT22;21230;51.170;17.024;2023-01-29T11:33:22;1.00;99.90
35043;DHT22;21230;51.170;17.024;2023-01-29T11:35:50;1.00;99.90
35043;DHT22;21230;51.170;17.024;2023-01-29T11:38:30;1.00;99.90
35043;DHT22;21230;51.170;17.024;2023-01-29T11:41:15;1.00;99.90
35043;DHT22;21230;51.170;17.024;2023-01-29T11:43:50;0.90;99.90
35043;DHT22;21230;51.170;17.024;2023-01-29T11:46:22;0.90;99.90
35043;DHT22;21230;51.170;17.024;2023-01-29T11:48:55;0.90;99.90
35043;DHT22;21230;51.170;17.024;2023-01-29T11:51:29;0.90;99.90
35043;DHT22;21230;51.170;17.024;2023-01-29T11:53:58;0.90;99.90
35043;DHT22;21230;51.170;17.024;2023-01-29T11:56:34;0.90;99.90
35043;DHT22;21230;51.170;17.024;2023-01-29T12:02:18;1.00;99.90
35043;DHT22;21230;51.170;17.024;2023-01-29T12:07:55;1.00;99.90
35043;DHT22;21230;51.170;17.024;2023-01-29T12:10:46;0.90;99.90
35043;DHT22;21230;51.170;17.024;2023-01-29T12:17:36;0.80;99.90
35043;DHT22;21230;51.170;17.024;2023-01-29T12:20:22;0.80;99.90
35043;DHT22;21230;51.170;17.024;2023-01-29T12:25:57;0.90;99.90
35043;DHT22;21230;51.170;17.024;2023-01-29T12:37:37;1.10;99.90
35043;DHT22;21230;51.170;17.024;2023-01-29T12:40:14;1.20;99.90
35043;DHT22;21230;51.170;17.024;2023-01-29T12:42:51;1.20;99.90
35043;DHT22;21230;51.170;17.024;2023-01-29T12:45:23;1.20;99.90
35043;DHT22;21230;51.170;17.024;2023-01-29T12:48:03;1.20;99.90
35043;DHT22;21230;51.170;17.024;2023-01-29T12:50:32;1.20;99.90
35043;DHT22;21230;51.170;17.024;2023-01-29T12:55:59;1.30;99.90
35043;DHT22;21230;51.170;17.024;2023-01-29T12:58:47;1.30;99.90
35043;DHT22;21230;51.170;17.024;2023-01-29T13:01:33;1.30;99.90
35043;DHT22;21230;51.170;17.024;2023-01-29T13:07:13;1.40;99.90
35043;DHT22;21230;51.170;17.024;2023-01-29T13:09:42;1.40;99.90
35043;DHT22;21230;51.170;17.024;2023-01-29T13:12:15;1.40;99.90
35043;DHT22;21230;51.170;17.024;2023-01-29T13:14:50;1.50;99.90
35043;DHT22;21230;51.170;17.024;2023-01-29T13:17:32;1.50;99.90
35043;DHT22;21230;51.170;17.024;2023-01-29T13:20:16;1.50;99.90
35043;DHT22;21230;51.170;17.024;2023-01-29T13:22:50;1.50;99.90
35043;DHT22;21230;51.170;17.024;2023-01-29T13:25:20;1.50;99.90
35043;DHT22;21230;51.170;17.024;2023-01-29T13:27:53;1.50;99.90
35043;DHT22;21230;51.170;17.024;2023-01-29T13:30:33;1.50;99.90
35043;DHT22;21230;51.170;17.024;2023-01-29T13:33:04;1.50;99.90
35043;DHT22;21230;51.170;17.024;2023-01-29T13:35:41;1.60;99.90
35043;DHT22;21230;51.170;17.024;2023-01-29T13:38:27;1.60;99.90
35043;DHT22;21230;51.170;17.024;2023-01-29T13:41:04;1.70;99.90
35043;DHT22;21230;51.170;17.024;2023-01-29T13:43:41;1.70;99.90
35043;DHT22;21230;51.170;17.024;2023-01-29T13:46:15;1.60;99.90
35043;DHT22;21230;51.170;17.024;2023-01-29T13:48:45;1.60;99.90
35043;DHT22;21230;51.170;17.024;2023-01-29T13:51:19;1.60;99.90
35043;DHT22;21230;51.170;17.024;2023-01-29T13:53:58;1.70;99.90
35043;DHT22;21230;51.170;17.024;2023-01-29T13:59:02;1.60;99.90
35043;DHT22;21230;51.170;17.024;2023-01-29T14:07:01;1.70;99.90
35043;DHT22;21230;51.170;17.024;2023-01-29T14:15:00;1.80;99.90
35043;DHT22;21230;51.170;17.024;2023-01-29T14:17:27;1.80;99.90
35043;DHT22;21230;51.170;17.024;2023-01-29T14:20:50;1.80;99.90
35043;DHT22;21230;51.170;17.024;2023-01-29T14:22:56;1.80;99.90
35043;DHT22;21230;51.170;17.024;2023-01-29T14:25:30;1.80;99.90
35043;DHT22;21230;51.170;17.024;2023-01-29T14:27:59;1.80;99.90
35043;DHT22;21230;51.170;17.024;2023-01-29T14:30:31;1.80;99.90
35043;DHT22;21230;51.170;17.024;2023-01-29T14:47:54;1.60;99.90
35043;DHT22;21230;51.170;17.024;2023-01-29T14:56:31;1.40;99.90
35043;DHT22;21230;51.170;17.024;2023-01-29T14:58:59;1.30;99.90
35043;DHT22;21230;51.170;17.024;2023-01-29T15:01:36;1.20;99.90
35043;DHT22;21230;51.170;17.024;2023-01-29T15:04:34;1.20;99.90
35043;DHT22;21230;51.170;17.024;2023-01-29T15:07:22;1.20;99.90
35043;DHT22;21230;51.170;17.024;2023-01-29T15:10:38;1.10;99.90
35043;DHT22;21230;51.170;17.024;2023-01-29T15:12:54;1.10;99.90
35043;DHT22;21230;51.170;17.024;2023-01-29T15:15:54;1.10;99.90
35043;DHT22;21230;51.170;17.024;2023-01-29T15:18:39;1.10;99.90
35043;DHT22;21230;51.170;17.024;2023-01-29T15:21:15;1.10;99.90
35043;DHT22;21230;51.170;17.024;2023-01-29T15:23:52;1.10;99.90
35043;DHT22;21230;51.170;17.024;2023-01-29T15:26:28;1.10;99.90
35043;DHT22;21230;51.170;17.024;2023-01-29T15:29:01;1.20;99.90
35043;DHT22;21230;51.170;17.024;2023-01-29T15:31:29;1.20;99.90
35043;DHT22;21230;51.170;17.024;2023-01-29T15:33:56;1.20;99.90
35043;DHT22;21230;51.170;17.024;2023-01-29T15:36:27;1.20;99.90
35043;DHT22;21230;51.170;17.024;2023-01-29T15:42:24;1.20;99.90
35043;DHT22;21230;51.170;17.024;2023-01-29T15:44:54;1.20;99.90
35043;DHT22;21230;51.170;17.024;2023-01-29T15:47:28;1.20;99.90
35043;DHT22;21230;51.170;17.024;2023-01-29T15:49:57;1.10;99.90
35043;DHT22;21230;51.170;17.024;2023-01-29T15:52:54;1.20;99.90
35043;DHT22;21230;51.170;17.024;2023-01-29T15:59:04;1.20;99.90
35043;DHT22;21230;51.170;17.024;2023-01-29T16:01:32;1.10;99.90
35043;DHT22;21230;51.170;17.024;2023-01-29T16:04:12;1.10;99.90
35043;DHT22;21230;51.170;17.024;2023-01-29T16:06:59;1.10;99.90
35043;DHT22;21230;51.170;17.024;2023-01-29T16:09:34;1.10;99.90
35043;DHT22;21230;51.170;17.024;2023-01-29T16:12:01;1.10;99.90
35043;DHT22;21230;51.170;17.024;2023-01-29T16:14:29;1.10;99.90
35043;DHT22;21230;51.170;17.024;2023-01-29T16:16:56;1.10;99.90
35043;DHT22;21230;51.170;17.024;2023-01-29T16:19:28;1.00;99.90
35043;DHT22;21230;51.170;17.024;2023-01-29T16:22:06;1.00;99.90
35043;DHT22;21230;51.170;17.024;2023-01-29T16:24:35;1.00;99.90
35043;DHT22;21230;51.170;17.024;2023-01-29T16:27:12;1.00;99.90
35043;DHT22;21230;51.170;17.024;2023-01-29T16:29:39;1.00;99.90
35043;DHT22;21230;51.170;17.024;2023-01-29T16:32:06;1.00;99.90
35043;DHT22;21230;51.170;17.024;2023-01-29T16:34:44;1.00;99.90
35043;DHT22;21230;51.170;17.024;2023-01-29T16:37:31;1.00;99.90
35043;DHT22;21230;51.170;17.024;2023-01-29T16:39:59;1.00;99.90
35043;DHT22;21230;51.170;17.024;2023-01-29T16:42:30;1.00;99.90
35043;DHT22;21230;51.170;17.024;2023-01-29T16:44:59;1.00;99.90
35043;DHT22;21230;51.170;17.024;2023-01-29T16:47:39;1.00;99.90
35043;DHT22;21230;51.170;17.024;2023-01-29T16:50:36;1.00;99.90
35043;DHT22;21230;51.170;17.024;2023-01-29T16:53:18;1.00;99.90
35043;DHT22;21230;51.170;17.024;2023-01-29T16:55:47;0.90;99.90
35043;DHT22;21230;51.170;17.024;2023-01-29T16:58:17;0.90;99.90
35043;DHT22;21230;51.170;17.024;2023-01-29T17:01:02;0.90;99.90
35043;DHT22;21230;51.170;17.024;2023-01-29T17:03:34;0.90;99.90
35043;DHT22;21230;51.170;17.024;2023-01-29T17:06:24;0.90;99.90
35043;DHT22;21230;51.170;17.024;2023-01-29T17:08:53;0.90;99.90
35043;DHT22;21230;51.170;17.024;2023-01-29T17:11:46;0.90;99.90
35043;DHT22;21230;51.170;17.024;2023-01-29T17:14:19;0.90;99.90
35043;DHT22;21230;51.170;17.024;2023-01-29T17:16:55;0.90;99.90
35043;DHT22;21230;51.170;17.024;2023-01-29T17:19:24;0.80;99.90
35043;DHT22;21230;51.170;17.024;2023-01-29T17:21:51;0.80;99.90
35043;DHT22;21230;51.170;17.024;2023-01-29T17:24:19;0.80;99.90
35043;DHT22;21230;51.170;17.024;2023-01-29T17:26:47;0.80;99.90
35043;DHT22;21230;51.170;17.024;2023-01-29T17:29:18;0.80;99.90
35043;DHT22;21230;51.170;17.024;2023-01-29T17:31:46;0.80;99.90
35043;DHT22;21230;51.170;17.024;2023-01-29T17:34:14;0.80;99.90
35043;DHT22;21230;51.170;17.024;2023-01-29T17:36:46;0.80;99.90
35043;DHT22;21230;51.170;17.024;2023-01-29T17:39:20;0.80;99.90
35043;DHT22;21230;51.170;17.024;2023-01-29T17:41:52;0.80;99.90
35043;DHT22;21230;51.170;17.024;2023-01-29T17:44:19;0.80;99.90
35043;DHT22;21230;51.170;17.024;2023-01-29T17:46:45;0.80;99.90
35043;DHT22;21230;51.170;17.024;2023-01-29T17:49:24;0.80;99.90
35043;DHT22;21230;51.170;17.024;2023-01-29T17:51:57;0.70;99.90
35043;DHT22;21230;51.170;17.024;2023-01-29T17:54:28;0.70;99.90
35043;DHT22;21230;51.170;17.024;2023-01-29T17:56:54;0.70;99.90
35043;DHT22;21230;51.170;17.024;2023-01-29T17:59:28;0.70;99.90
35043;DHT22;21230;51.170;17.024;2023-01-29T18:01:57;0.70;99.90
35043;DHT22;21230;51.170;17.024;2023-01-29T18:04:23;0.70;99.90
35043;DHT22;21230;51.170;17.024;2023-01-29T18:06:51;0.70;99.90
35043;DHT22;21230;51.170;17.024;2023-01-29T18:09:20;0.80;99.90
35043;DHT22;21230;51.170;17.024;2023-01-29T18:11:49;0.80;99.90
35043;DHT22;21230;51.170;17.024;2023-01-29T18:14:17;0.80;99.90
35043;DHT22;21230;51.170;17.024;2023-01-29T18:16:44;0.80;99.90
35043;DHT22;21230;51.170;17.024;2023-01-29T18:19:25;0.80;99.90
35043;DHT22;21230;51.170;17.024;2023-01-29T18:21:56;0.80;99.90
35043;DHT22;21230;51.170;17.024;2023-01-29T18:24:23;0.80;99.90
35043;DHT22;21230;51.170;17.024;2023-01-29T18:26:51;0.80;99.90
35043;DHT22;21230;51.170;17.024;2023-01-29T18:29:18;0.80;99.90
35043;DHT22;21230;51.170;17.024;2023-01-29T18:31:47;0.90;99.90
35043;DHT22;21230;51.170;17.024;2023-01-29T18:34:20;0.90;99.90
35043;DHT22;21230;51.170;17.024;2023-01-29T18:36:55;0.90;99.90
35043;DHT22;21230;51.170;17.024;2023-01-29T18:39:24;0.90;99.90
35043;DHT22;21230;51.170;17.024;2023-01-29T18:41:51;0.90;99.90
35043;DHT22;21230;51.170;17.024;2023-01-29T18:44:17;0.90;99.90
35043;DHT22;21230;51.170;17.024;2023-01-29T18:46:50;1.00;99.90
35043;DHT22;21230;51.170;17.024;2023-01-29T18:49:23;1.00;99.90